sensor_id;sensor_type;location;lat;lon;timestamp;P1;durP1;ratioP1;P2;durP2;ratioP2
74267;SDS011;62638;51.362;12.472;2022-08-07T00:01:08;2.45;;;1.80;;
74267;SDS011;62638;51.362;12.472;2022-08-07T00:03:33;3.07;;;1.67;;
74267;SDS011;62638;51.362;12.472;2022-08-07T00:05:58;3.40;;;2.10;;
74267;SDS011;62638;51.362;12.472;2022-08-07T00:08:23;5.40;;;1.90;;
74267;SDS011;62638;51.362;12.472;2022-08-07T00:10:49;3.42;;;2.00;;
74267;SDS011;62638;51.362;12.472;2022-08-07T00:13:15;2.75;;;2.00;;
74267;SDS011;62638;51.362;12.472;2022-08-07T00:15:42;3.40;;;2.30;;
74267;SDS011;62638;51.362;12.472;2022-08-07T00:18:07;3.10;;;2.00;;
74267;SDS011;62638;51.362;12.472;2022-08-07T00:20:34;3.83;;;1.90;;
74267;SDS011;62638;51.362;12.472;2022-08-07T00:23:00;5.22;;;2.15;;
74267;SDS011;62638;51.362;12.472;2022-08-07T00:25:28;3.58;;;2.22;;
74267;SDS011;62638;51.362;12.472;2022-08-07T00:27:53;4.18;;;2.78;;
74267;SDS011;62638;51.362;12.472;2022-08-07T00:30:19;3.55;;;1.80;;
74267;SDS011;62638;51.362;12.472;2022-08-07T00:32:46;4.95;;;2.35;;
74267;SDS011;62638;51.362;12.472;2022-08-07T00:35:13;4.53;;;2.20;;
74267;SDS011;62638;51.362;12.472;2022-08-07T00:37:38;3.80;;;2.27;;
74267;SDS011;62638;51.362;12.472;2022-08-07T00:40:03;3.60;;;2.58;;
74267;SDS011;62638;51.362;12.472;2022-08-07T00:42:30;3.72;;;2.00;;
74267;SDS011;62638;51.362;12.472;2022-08-07T00:44:57;5.25;;;2.25;;
74267;SDS011;62638;51.362;12.472;2022-08-07T00:47:23;4.72;;;2.40;;
74267;SDS011;62638;51.362;12.472;2022-08-07T00:49:48;3.47;;;2.25;;
74267;SDS011;62638;51.362;12.472;2022-08-07T00:52:13;4.23;;;2.20;;
74267;SDS011;62638;51.362;12.472;2022-08-07T00:54:38;2.83;;;2.33;;
74267;SDS011;62638;51.362;12.472;2022-08-07T00:57:04;4.07;;;2.70;;
74267;SDS011;62638;51.362;12.472;2022-08-07T00:59:30;3.10;;;2.20;;
74267;SDS011;62638;51.362;12.472;2022-08-07T01:01:56;3.10;;;2.05;;
74267;SDS011;62638;51.362;12.472;2022-08-07T01:04:22;6.13;;;2.40;;
74267;SDS011;62638;51.362;12.472;2022-08-07T01:06:47;4.22;;;2.40;;
74267;SDS011;62638;51.362;12.472;2022-08-07T01:09:12;4.28;;;2.15;;
74267;SDS011;62638;51.362;12.472;2022-08-07T01:11:39;4.40;;;2.58;;
74267;SDS011;62638;51.362;12.472;2022-08-07T01:14:04;3.05;;;2.08;;
74267;SDS011;62638;51.362;12.472;2022-08-07T01:16:31;5.40;;;2.50;;
74267;SDS011;62638;51.362;12.472;2022-08-07T01:18:56;4.03;;;2.40;;
74267;SDS011;62638;51.362;12.472;2022-08-07T01:21:22;3.90;;;2.28;;
74267;SDS011;62638;51.362;12.472;2022-08-07T01:23:50;5.38;;;2.58;;
74267;SDS011;62638;51.362;12.472;2022-08-07T01:28:47;4.35;;;2.05;;
74267;SDS011;62638;51.362;12.472;2022-08-07T01:31:16;3.97;;;2.25;;
74267;SDS011;62638;51.362;12.472;2022-08-07T01:33:43;4.95;;;2.58;;
74267;SDS011;62638;51.362;12.472;2022-08-07T01:36:10;3.00;;;2.15;;
74267;SDS011;62638;51.362;12.472;2022-08-07T01:38:37;2.97;;;2.03;;
74267;SDS011;62638;51.362;12.472;2022-08-07T01:41:03;4.38;;;3.20;;
74267;SDS011;62638;51.362;12.472;2022-08-07T01:43:30;5.60;;;2.40;;
74267;SDS011;62638;51.362;12.472;2022-08-07T01:45:56;3.67;;;2.40;;
74267;SDS011;62638;51.362;12.472;2022-08-07T01:48:22;4.05;;;2.10;;
74267;SDS011;62638;51.362;12.472;2022-08-07T01:50:53;2.95;;;2.03;;
74267;SDS011;62638;51.362;12.472;2022-08-07T01:53:27;3.50;;;2.10;;
74267;SDS011;62638;51.362;12.472;2022-08-07T01:55:57;3.08;;;2.30;;
74267;SDS011;62638;51.362;12.472;2022-08-07T01:58:28;3.95;;;2.03;;
74267;SDS011;62638;51.362;12.472;2022-08-07T02:01:00;3.13;;;2.40;;
74267;SDS011;62638;51.362;12.472;2022-08-07T02:03:27;3.25;;;2.42;;
74267;SDS011;62638;51.362;12.472;2022-08-07T02:05:57;3.85;;;2.70;;
74267;SDS011;62638;51.362;12.472;2022-08-07T02:08:27;10.93;;;4.05;;
74267;SDS011;62638;51.362;12.472;2022-08-07T02:10:57;5.70;;;2.20;;
74267;SDS011;62638;51.362;12.472;2022-08-07T02:13:27;4.05;;;2.08;;
74267;SDS011;62638;51.362;12.472;2022-08-07T02:15:54;2.70;;;1.98;;
74267;SDS011;62638;51.362;12.472;2022-08-07T02:18:23;4.43;;;2.58;;
74267;SDS011;62638;51.362;12.472;2022-08-07T02:20:53;3.00;;;2.08;;
74267;SDS011;62638;51.362;12.472;2022-08-07T02:23:20;2.90;;;2.28;;
74267;SDS011;62638;51.362;12.472;2022-08-07T02:25:47;3.33;;;2.30;;
74267;SDS011;62638;51.362;12.472;2022-08-07T02:28:13;3.45;;;2.20;;
74267;SDS011;62638;51.362;12.472;2022-08-07T02:30:39;2.80;;;2.28;;
74267;SDS011;62638;51.362;12.472;2022-08-07T02:33:07;2.70;;;1.90;;
74267;SDS011;62638;51.362;12.472;2022-08-07T02:35:33;3.10;;;2.00;;
74267;SDS011;62638;51.362;12.472;2022-08-07T02:38:01;2.72;;;2.17;;
74267;SDS011;62638;51.362;12.472;2022-08-07T02:40:29;3.22;;;2.10;;
74267;SDS011;62638;51.362;12.472;2022-08-07T02:42:55;2.90;;;1.75;;
74267;SDS011;62638;51.362;12.472;2022-08-07T02:45:23;8.55;;;2.97;;
74267;SDS011;62638;51.362;12.472;2022-08-07T02:47:52;3.00;;;2.00;;
74267;SDS011;62638;51.362;12.472;2022-08-07T02:50:17;4.38;;;2.33;;
74267;SDS011;62638;51.362;12.472;2022-08-07T02:52:57;4.00;;;2.30;;
74267;SDS011;62638;51.362;12.472;2022-08-07T02:55:26;2.90;;;2.30;;
74267;SDS011;62638;51.362;12.472;2022-08-07T02:57:55;3.60;;;2.08;;
74267;SDS011;62638;51.362;12.472;2022-08-07T03:00:27;3.50;;;2.70;;
74267;SDS011;62638;51.362;12.472;2022-08-07T03:02:53;4.07;;;2.22;;
74267;SDS011;62638;51.362;12.472;2022-08-07T03:05:18;4.78;;;2.40;;
74267;SDS011;62638;51.362;12.472;2022-08-07T03:07:44;3.03;;;2.20;;
74267;SDS011;62638;51.362;12.472;2022-08-07T03:10:11;3.65;;;2.17;;
74267;SDS011;62638;51.362;12.472;2022-08-07T03:12:37;4.63;;;2.22;;
74267;SDS011;62638;51.362;12.472;2022-08-07T03:15:03;3.33;;;2.10;;
74267;SDS011;62638;51.362;12.472;2022-08-07T03:17:31;3.00;;;2.05;;
74267;SDS011;62638;51.362;12.472;2022-08-07T03:19:58;4.00;;;2.58;;
74267;SDS011;62638;51.362;12.472;2022-08-07T03:22:25;2.72;;;1.92;;
74267;SDS011;62638;51.362;12.472;2022-08-07T03:24:52;4.97;;;2.47;;
74267;SDS011;62638;51.362;12.472;2022-08-07T03:27:17;5.47;;;2.40;;
74267;SDS011;62638;51.362;12.472;2022-08-07T03:29:44;3.97;;;2.22;;
74267;SDS011;62638;51.362;12.472;2022-08-07T03:32:12;5.97;;;2.42;;
74267;SDS011;62638;51.362;12.472;2022-08-07T03:34:39;3.47;;;2.80;;
74267;SDS011;62638;51.362;12.472;2022-08-07T03:37:07;2.70;;;2.33;;
74267;SDS011;62638;51.362;12.472;2022-08-07T03:39:34;6.03;;;2.72;;
74267;SDS011;62638;51.362;12.472;2022-08-07T03:42:02;3.63;;;2.90;;
74267;SDS011;62638;51.362;12.472;2022-08-07T03:44:29;4.75;;;2.60;;
74267;SDS011;62638;51.362;12.472;2022-08-07T03:46:59;3.38;;;2.35;;
74267;SDS011;62638;51.362;12.472;2022-08-07T03:49:26;3.67;;;2.55;;
74267;SDS011;62638;51.362;12.472;2022-08-07T03:51:51;3.65;;;2.95;;
74267;SDS011;62638;51.362;12.472;2022-08-07T03:54:17;4.63;;;2.63;;
74267;SDS011;62638;51.362;12.472;2022-08-07T03:56:42;3.95;;;2.80;;
74267;SDS011;62638;51.362;12.472;2022-08-07T03:59:10;4.00;;;2.75;;
74267;SDS011;62638;51.362;12.472;2022-08-07T04:01:41;3.42;;;2.50;;
74267;SDS011;62638;51.362;12.472;2022-08-07T04:04:07;3.80;;;2.50;;
74267;SDS011;62638;51.362;12.472;2022-08-07T04:06:34;4.60;;;2.60;;
74267;SDS011;62638;51.362;12.472;2022-08-07T04:09:00;4.00;;;2.63;;
74267;SDS011;62638;51.362;12.472;2022-08-07T04:11:27;3.65;;;2.35;;
74267;SDS011;62638;51.362;12.472;2022-08-07T04:13:52;4.68;;;2.50;;
74267;SDS011;62638;51.362;12.472;2022-08-07T04:16:19;5.60;;;2.60;;
74267;SDS011;62638;51.362;12.472;2022-08-07T04:18:45;3.40;;;2.22;;
74267;SDS011;62638;51.362;12.472;2022-08-07T04:21:10;7.13;;;2.53;;
74267;SDS011;62638;51.362;12.472;2022-08-07T04:23:36;4.72;;;2.53;;
74267;SDS011;62638;51.362;12.472;2022-08-07T04:26:02;4.10;;;3.00;;
74267;SDS011;62638;51.362;12.472;2022-08-07T04:28:30;4.45;;;2.15;;
74267;SDS011;62638;51.362;12.472;2022-08-07T04:30:55;4.13;;;2.50;;
74267;SDS011;62638;51.362;12.472;2022-08-07T04:33:20;3.90;;;2.78;;
74267;SDS011;62638;51.362;12.472;2022-08-07T04:35:48;4.65;;;2.28;;
74267;SDS011;62638;51.362;12.472;2022-08-07T04:38:13;3.45;;;2.55;;
74267;SDS011;62638;51.362;12.472;2022-08-07T04:40:40;5.10;;;2.10;;
74267;SDS011;62638;51.362;12.472;2022-08-07T04:43:07;3.75;;;2.40;;
74267;SDS011;62638;51.362;12.472;2022-08-07T04:46:17;3.28;;;2.60;;
74267;SDS011;62638;51.362;12.472;2022-08-07T04:51:04;3.65;;;2.80;;
74267;SDS011;62638;51.362;12.472;2022-08-07T04:53:45;5.22;;;2.90;;
74267;SDS011;62638;51.362;12.472;2022-08-07T04:58:49;3.38;;;2.50;;
74267;SDS011;62638;51.362;12.472;2022-08-07T05:01:23;2.67;;;2.08;;
74267;SDS011;62638;51.362;12.472;2022-08-07T05:04:01;3.63;;;2.35;;
74267;SDS011;62638;51.362;12.472;2022-08-07T05:06:52;3.08;;;1.73;;
74267;SDS011;62638;51.362;12.472;2022-08-07T05:09:58;5.55;;;2.15;;
74267;SDS011;62638;51.362;12.472;2022-08-07T05:12:34;2.55;;;2.03;;
74267;SDS011;62638;51.362;12.472;2022-08-07T05:15:07;3.17;;;2.08;;
74267;SDS011;62638;51.362;12.472;2022-08-07T05:17:42;2.65;;;2.35;;
74267;SDS011;62638;51.362;12.472;2022-08-07T05:20:10;4.75;;;1.98;;
74267;SDS011;62638;51.362;12.472;2022-08-07T05:22:37;4.43;;;2.30;;
74267;SDS011;62638;51.362;12.472;2022-08-07T05:25:05;3.80;;;2.50;;
74267;SDS011;62638;51.362;12.472;2022-08-07T05:27:32;3.33;;;2.47;;
74267;SDS011;62638;51.362;12.472;2022-08-07T05:29:58;3.67;;;2.20;;
74267;SDS011;62638;51.362;12.472;2022-08-07T05:32:25;2.33;;;1.90;;
74267;SDS011;62638;51.362;12.472;2022-08-07T05:34:51;3.65;;;2.20;;
74267;SDS011;62638;51.362;12.472;2022-08-07T05:37:17;3.28;;;1.80;;
74267;SDS011;62638;51.362;12.472;2022-08-07T05:39:44;4.20;;;2.20;;
74267;SDS011;62638;51.362;12.472;2022-08-07T05:42:11;3.13;;;1.65;;
74267;SDS011;62638;51.362;12.472;2022-08-07T05:44:37;2.55;;;1.60;;
74267;SDS011;62638;51.362;12.472;2022-08-07T05:47:04;2.90;;;1.65;;
74267;SDS011;62638;51.362;12.472;2022-08-07T05:49:31;2.63;;;1.48;;
74267;SDS011;62638;51.362;12.472;2022-08-07T05:51:58;1.55;;;1.45;;
74267;SDS011;62638;51.362;12.472;2022-08-07T05:54:23;3.28;;;1.50;;
74267;SDS011;62638;51.362;12.472;2022-08-07T05:56:48;1.90;;;1.40;;
74267;SDS011;62638;51.362;12.472;2022-08-07T05:59:16;1.42;;;1.30;;
74267;SDS011;62638;51.362;12.472;2022-08-07T06:01:43;1.70;;;1.30;;
74267;SDS011;62638;51.362;12.472;2022-08-07T06:04:09;1.42;;;1.33;;
74267;SDS011;62638;51.362;12.472;2022-08-07T06:06:38;2.95;;;1.45;;
74267;SDS011;62638;51.362;12.472;2022-08-07T06:09:04;2.60;;;1.50;;
74267;SDS011;62638;51.362;12.472;2022-08-07T06:11:30;2.50;;;1.30;;
74267;SDS011;62638;51.362;12.472;2022-08-07T06:13:57;3.67;;;1.33;;
74267;SDS011;62638;51.362;12.472;2022-08-07T06:16:22;3.03;;;1.20;;
74267;SDS011;62638;51.362;12.472;2022-08-07T06:18:52;1.45;;;1.17;;
74267;SDS011;62638;51.362;12.472;2022-08-07T06:21:18;1.30;;;1.20;;
74267;SDS011;62638;51.362;12.472;2022-08-07T06:23:44;1.60;;;1.25;;
74267;SDS011;62638;51.362;12.472;2022-08-07T06:26:13;2.17;;;1.10;;
74267;SDS011;62638;51.362;12.472;2022-08-07T06:28:51;1.77;;;1.08;;
74267;SDS011;62638;51.362;12.472;2022-08-07T06:31:19;2.42;;;1.20;;
74267;SDS011;62638;51.362;12.472;2022-08-07T06:33:45;1.95;;;1.00;;
74267;SDS011;62638;51.362;12.472;2022-08-07T06:36:11;1.15;;;0.90;;
74267;SDS011;62638;51.362;12.472;2022-08-07T06:38:36;1.75;;;1.00;;
74267;SDS011;62638;51.362;12.472;2022-08-07T06:41:01;1.90;;;0.88;;
74267;SDS011;62638;51.362;12.472;2022-08-07T06:43:31;4.15;;;0.93;;
74267;SDS011;62638;51.362;12.472;2022-08-07T06:46:00;1.95;;;0.90;;
74267;SDS011;62638;51.362;12.472;2022-08-07T06:48:26;2.53;;;1.10;;
74267;SDS011;62638;51.362;12.472;2022-08-07T06:50:52;2.03;;;0.95;;
74267;SDS011;62638;51.362;12.472;2022-08-07T06:53:19;1.40;;;0.90;;
74267;SDS011;62638;51.362;12.472;2022-08-07T06:55:46;1.50;;;0.80;;
74267;SDS011;62638;51.362;12.472;2022-08-07T06:58:13;0.90;;;0.70;;
74267;SDS011;62638;51.362;12.472;2022-08-07T07:00:39;1.92;;;0.80;;
74267;SDS011;62638;51.362;12.472;2022-08-07T07:03:07;1.42;;;0.75;;
74267;SDS011;62638;51.362;12.472;2022-08-07T07:05:33;3.70;;;0.90;;
74267;SDS011;62638;51.362;12.472;2022-08-07T07:07:59;1.75;;;0.93;;
74267;SDS011;62638;51.362;12.472;2022-08-07T07:10:28;0.80;;;0.70;;
74267;SDS011;62638;51.362;12.472;2022-08-07T07:13:07;2.50;;;0.82;;
74267;SDS011;62638;51.362;12.472;2022-08-07T07:15:43;3.35;;;0.90;;
74267;SDS011;62638;51.362;12.472;2022-08-07T07:18:13;1.75;;;1.00;;
74267;SDS011;62638;51.362;12.472;2022-08-07T07:21:26;0.93;;;0.80;;
74267;SDS011;62638;51.362;12.472;2022-08-07T07:23:44;2.78;;;1.02;;
74267;SDS011;62638;51.362;12.472;2022-08-07T07:26:10;3.17;;;0.90;;
74267;SDS011;62638;51.362;12.472;2022-08-07T07:28:41;1.48;;;0.75;;
74267;SDS011;62638;51.362;12.472;2022-08-07T07:31:20;1.58;;;0.85;;
74267;SDS011;62638;51.362;12.472;2022-08-07T07:33:51;3.17;;;1.10;;
74267;SDS011;62638;51.362;12.472;2022-08-07T07:36:20;3.08;;;0.90;;
74267;SDS011;62638;51.362;12.472;2022-08-07T07:38:48;4.40;;;1.00;;
74267;SDS011;62638;51.362;12.472;2022-08-07T07:41:14;2.08;;;1.00;;
74267;SDS011;62638;51.362;12.472;2022-08-07T07:43:42;1.45;;;0.90;;
74267;SDS011;62638;51.362;12.472;2022-08-07T07:46:10;5.63;;;1.00;;
74267;SDS011;62638;51.362;12.472;2022-08-07T07:48:38;1.67;;;0.80;;
74267;SDS011;62638;51.362;12.472;2022-08-07T07:51:06;0.95;;;0.70;;
74267;SDS011;62638;51.362;12.472;2022-08-07T07:53:32;3.50;;;0.90;;
74267;SDS011;62638;51.362;12.472;2022-08-07T07:56:00;3.30;;;1.23;;
74267;SDS011;62638;51.362;12.472;2022-08-07T07:58:30;1.17;;;0.75;;
74267;SDS011;62638;51.362;12.472;2022-08-07T08:00:58;2.00;;;0.90;;
74267;SDS011;62638;51.362;12.472;2022-08-07T08:05:52;0.95;;;0.70;;
74267;SDS011;62638;51.362;12.472;2022-08-07T08:08:19;1.30;;;0.85;;
74267;SDS011;62638;51.362;12.472;2022-08-07T08:10:44;1.42;;;0.80;;
74267;SDS011;62638;51.362;12.472;2022-08-07T08:13:10;4.22;;;0.70;;
74267;SDS011;62638;51.362;12.472;2022-08-07T08:15:39;2.15;;;0.90;;
74267;SDS011;62638;51.362;12.472;2022-08-07T08:18:08;1.75;;;0.80;;
74267;SDS011;62638;51.362;12.472;2022-08-07T08:20:35;0.60;;;0.50;;
74267;SDS011;62638;51.362;12.472;2022-08-07T08:23:02;0.70;;;0.52;;
74267;SDS011;62638;51.362;12.472;2022-08-07T08:25:48;2.65;;;0.50;;
74267;SDS011;62638;51.362;12.472;2022-08-07T08:28:35;1.35;;;0.60;;
74267;SDS011;62638;51.362;12.472;2022-08-07T08:31:05;1.08;;;0.70;;
74267;SDS011;62638;51.362;12.472;2022-08-07T08:33:34;0.65;;;0.40;;
74267;SDS011;62638;51.362;12.472;2022-08-07T08:36:00;0.93;;;0.50;;
74267;SDS011;62638;51.362;12.472;2022-08-07T08:38:30;3.08;;;0.50;;
74267;SDS011;62638;51.362;12.472;2022-08-07T08:43:53;1.20;;;0.50;;
74267;SDS011;62638;51.362;12.472;2022-08-07T08:46:40;1.65;;;0.65;;
74267;SDS011;62638;51.362;12.472;2022-08-07T08:51:56;1.08;;;0.70;;
74267;SDS011;62638;51.362;12.472;2022-08-07T08:54:28;0.63;;;0.30;;
74267;SDS011;62638;51.362;12.472;2022-08-07T08:57:00;1.48;;;0.40;;
74267;SDS011;62638;51.362;12.472;2022-08-07T08:59:48;0.80;;;0.52;;
74267;SDS011;62638;51.362;12.472;2022-08-07T09:02:20;0.57;;;0.50;;
74267;SDS011;62638;51.362;12.472;2022-08-07T09:07:43;1.30;;;0.32;;
74267;SDS011;62638;51.362;12.472;2022-08-07T09:10:20;1.20;;;0.30;;
74267;SDS011;62638;51.362;12.472;2022-08-07T09:12:55;2.13;;;0.38;;
74267;SDS011;62638;51.362;12.472;2022-08-07T09:15:37;1.20;;;0.40;;
74267;SDS011;62638;51.362;12.472;2022-08-07T09:18:22;1.00;;;0.30;;
74267;SDS011;62638;51.362;12.472;2022-08-07T09:23:58;0.68;;;0.40;;
74267;SDS011;62638;51.362;12.472;2022-08-07T09:29:20;2.85;;;0.40;;
74267;SDS011;62638;51.362;12.472;2022-08-07T09:46:22;0.57;;;0.30;;
74267;SDS011;62638;51.362;12.472;2022-08-07T09:49:02;0.63;;;0.50;;
74267;SDS011;62638;51.362;12.472;2022-08-07T09:51:59;0.82;;;0.57;;
74267;SDS011;62638;51.362;12.472;2022-08-07T09:54:46;1.00;;;0.50;;
74267;SDS011;62638;51.362;12.472;2022-08-07T10:00:12;2.15;;;0.57;;
74267;SDS011;62638;51.362;12.472;2022-08-07T10:31:06;3.17;;;0.40;;
74267;SDS011;62638;51.362;12.472;2022-08-07T10:33:54;1.02;;;0.40;;
74267;SDS011;62638;51.362;12.472;2022-08-07T10:41:41;2.33;;;0.57;;
74267;SDS011;62638;51.362;12.472;2022-08-07T10:49:52;0.70;;;0.45;;
74267;SDS011;62638;51.362;12.472;2022-08-07T10:52:32;0.70;;;0.70;;
74267;SDS011;62638;51.362;12.472;2022-08-07T10:57:45;1.00;;;0.40;;
74267;SDS011;62638;51.362;12.472;2022-08-07T11:00:20;1.67;;;0.50;;
74267;SDS011;62638;51.362;12.472;2022-08-07T11:02:49;0.93;;;0.32;;
74267;SDS011;62638;51.362;12.472;2022-08-07T11:11:31;1.45;;;0.30;;
74267;SDS011;62638;51.362;12.472;2022-08-07T11:16:46;3.60;;;0.40;;
74267;SDS011;62638;51.362;12.472;2022-08-07T11:19:17;0.40;;;0.40;;
74267;SDS011;62638;51.362;12.472;2022-08-07T11:25:10;2.75;;;0.65;;
74267;SDS011;62638;51.362;12.472;2022-08-07T11:30:36;1.70;;;0.65;;
74267;SDS011;62638;51.362;12.472;2022-08-07T11:33:42;2.08;;;0.50;;
74267;SDS011;62638;51.362;12.472;2022-08-07T11:39:02;0.73;;;0.52;;
74267;SDS011;62638;51.362;12.472;2022-08-07T11:44:46;0.75;;;0.38;;
74267;SDS011;62638;51.362;12.472;2022-08-07T11:49:55;1.23;;;0.50;;
74267;SDS011;62638;51.362;12.472;2022-08-07T11:52:34;2.88;;;0.55;;
74267;SDS011;62638;51.362;12.472;2022-08-07T11:58:13;0.98;;;0.38;;
74267;SDS011;62638;51.362;12.472;2022-08-07T12:03:55;2.30;;;0.40;;
74267;SDS011;62638;51.362;12.472;2022-08-07T12:06:52;0.95;;;0.50;;
74267;SDS011;62638;51.362;12.472;2022-08-07T12:09:25;0.98;;;0.50;;
74267;SDS011;62638;51.362;12.472;2022-08-07T12:12:02;2.33;;;0.45;;
74267;SDS011;62638;51.362;12.472;2022-08-07T12:14:51;0.43;;;0.38;;
74267;SDS011;62638;51.362;12.472;2022-08-07T12:17:36;0.57;;;0.40;;
74267;SDS011;62638;51.362;12.472;2022-08-07T12:20:51;0.90;;;0.47;;
74267;SDS011;62638;51.362;12.472;2022-08-07T12:28:30;1.13;;;0.40;;
74267;SDS011;62638;51.362;12.472;2022-08-07T12:31:05;2.50;;;0.40;;
74267;SDS011;62638;51.362;12.472;2022-08-07T12:33:37;0.40;;;0.40;;
74267;SDS011;62638;51.362;12.472;2022-08-07T12:36:04;2.67;;;0.38;;
74267;SDS011;62638;51.362;12.472;2022-08-07T12:38:31;0.73;;;0.50;;
74267;SDS011;62638;51.362;12.472;2022-08-07T12:40:58;1.63;;;0.60;;
74267;SDS011;62638;51.362;12.472;2022-08-07T12:43:27;0.32;;;0.32;;
74267;SDS011;62638;51.362;12.472;2022-08-07T12:49:01;0.93;;;0.40;;
74267;SDS011;62638;51.362;12.472;2022-08-07T12:51:49;1.73;;;1.02;;
74267;SDS011;62638;51.362;12.472;2022-08-07T12:54:25;1.65;;;0.40;;
74267;SDS011;62638;51.362;12.472;2022-08-07T12:56:56;0.88;;;0.40;;
74267;SDS011;62638;51.362;12.472;2022-08-07T12:59:26;0.47;;;0.30;;
74267;SDS011;62638;51.362;12.472;2022-08-07T13:02:01;1.88;;;0.47;;
74267;SDS011;62638;51.362;12.472;2022-08-07T13:05:02;0.22;;;0.22;;
74267;SDS011;62638;51.362;12.472;2022-08-07T13:07:49;0.80;;;0.38;;
74267;SDS011;62638;51.362;12.472;2022-08-07T13:21:49;0.68;;;0.30;;
74267;SDS011;62638;51.362;12.472;2022-08-07T13:26:56;1.02;;;0.20;;
74267;SDS011;62638;51.362;12.472;2022-08-07T13:29:35;1.42;;;0.52;;
74267;SDS011;62638;51.362;12.472;2022-08-07T13:32:14;0.60;;;0.40;;
74267;SDS011;62638;51.362;12.472;2022-08-07T13:34:50;1.20;;;0.40;;
74267;SDS011;62638;51.362;12.472;2022-08-07T13:37:30;0.93;;;0.40;;
74267;SDS011;62638;51.362;12.472;2022-08-07T13:42:38;0.60;;;0.38;;
74267;SDS011;62638;51.362;12.472;2022-08-07T13:45:06;1.27;;;0.50;;
74267;SDS011;62638;51.362;12.472;2022-08-07T13:47:36;0.40;;;0.40;;
74267;SDS011;62638;51.362;12.472;2022-08-07T13:50:03;0.50;;;0.50;;
74267;SDS011;62638;51.362;12.472;2022-08-07T13:52:31;1.00;;;0.43;;
74267;SDS011;62638;51.362;12.472;2022-08-07T13:55:04;2.40;;;0.73;;
74267;SDS011;62638;51.362;12.472;2022-08-07T13:57:32;0.57;;;0.40;;
74267;SDS011;62638;51.362;12.472;2022-08-07T13:59:59;2.50;;;0.52;;
74267;SDS011;62638;51.362;12.472;2022-08-07T14:02:26;0.40;;;0.40;;
74267;SDS011;62638;51.362;12.472;2022-08-07T14:04:53;1.30;;;0.50;;
74267;SDS011;62638;51.362;12.472;2022-08-07T14:07:25;1.08;;;0.30;;
74267;SDS011;62638;51.362;12.472;2022-08-07T14:09:57;0.47;;;0.30;;
74267;SDS011;62638;51.362;12.472;2022-08-07T14:12:29;1.02;;;0.52;;
74267;SDS011;62638;51.362;12.472;2022-08-07T14:15:30;1.23;;;0.50;;
74267;SDS011;62638;51.362;12.472;2022-08-07T14:18:06;1.08;;;0.40;;
74267;SDS011;62638;51.362;12.472;2022-08-07T14:20:37;2.83;;;0.50;;
74267;SDS011;62638;51.362;12.472;2022-08-07T14:23:13;0.85;;;0.55;;
74267;SDS011;62638;51.362;12.472;2022-08-07T14:25:42;0.40;;;0.30;;
74267;SDS011;62638;51.362;12.472;2022-08-07T14:28:10;1.42;;;0.50;;
74267;SDS011;62638;51.362;12.472;2022-08-07T14:30:39;0.75;;;0.55;;
74267;SDS011;62638;51.362;12.472;2022-08-07T14:33:10;2.53;;;0.40;;
74267;SDS011;62638;51.362;12.472;2022-08-07T14:35:39;0.43;;;0.43;;
74267;SDS011;62638;51.362;12.472;2022-08-07T14:38:05;1.13;;;0.50;;
74267;SDS011;62638;51.362;12.472;2022-08-07T14:43:00;1.50;;;0.30;;
74267;SDS011;62638;51.362;12.472;2022-08-07T14:45:30;0.60;;;0.35;;
74267;SDS011;62638;51.362;12.472;2022-08-07T14:47:59;0.73;;;0.40;;
74267;SDS011;62638;51.362;12.472;2022-08-07T14:50:27;0.63;;;0.32;;
74267;SDS011;62638;51.362;12.472;2022-08-07T14:52:53;0.93;;;0.40;;
74267;SDS011;62638;51.362;12.472;2022-08-07T14:55:20;2.55;;;0.60;;
74267;SDS011;62638;51.362;12.472;2022-08-07T14:57:47;0.80;;;0.50;;
74267;SDS011;62638;51.362;12.472;2022-08-07T15:00:14;2.25;;;0.70;;
74267;SDS011;62638;51.362;12.472;2022-08-07T15:02:43;1.38;;;0.40;;
74267;SDS011;62638;51.362;12.472;2022-08-07T15:05:13;1.95;;;0.40;;
74267;SDS011;62638;51.362;12.472;2022-08-07T15:07:41;1.02;;;0.50;;
74267;SDS011;62638;51.362;12.472;2022-08-07T15:10:08;1.65;;;0.43;;
74267;SDS011;62638;51.362;12.472;2022-08-07T15:12:41;1.75;;;0.60;;
74267;SDS011;62638;51.362;12.472;2022-08-07T15:15:08;0.30;;;0.30;;
74267;SDS011;62638;51.362;12.472;2022-08-07T15:17:39;0.98;;;0.50;;
74267;SDS011;62638;51.362;12.472;2022-08-07T15:20:08;1.30;;;0.40;;
74267;SDS011;62638;51.362;12.472;2022-08-07T15:22:46;1.55;;;0.40;;
74267;SDS011;62638;51.362;12.472;2022-08-07T15:25:15;1.35;;;0.50;;
74267;SDS011;62638;51.362;12.472;2022-08-07T15:27:48;0.73;;;0.40;;
74267;SDS011;62638;51.362;12.472;2022-08-07T15:30:18;2.45;;;0.50;;
74267;SDS011;62638;51.362;12.472;2022-08-07T15:32:46;0.88;;;0.40;;
74267;SDS011;62638;51.362;12.472;2022-08-07T15:35:23;0.40;;;0.35;;
74267;SDS011;62638;51.362;12.472;2022-08-07T15:37:50;1.13;;;0.40;;
74267;SDS011;62638;51.362;12.472;2022-08-07T15:40:17;1.52;;;0.52;;
74267;SDS011;62638;51.362;12.472;2022-08-07T15:42:46;0.77;;;0.47;;
74267;SDS011;62638;51.362;12.472;2022-08-07T15:45:24;1.48;;;0.70;;
74267;SDS011;62638;51.362;12.472;2022-08-07T15:47:54;2.83;;;0.68;;
74267;SDS011;62638;51.362;12.472;2022-08-07T15:50:29;0.40;;;0.40;;
74267;SDS011;62638;51.362;12.472;2022-08-07T15:53:03;2.70;;;0.80;;
74267;SDS011;62638;51.362;12.472;2022-08-07T15:55:33;0.90;;;0.30;;
74267;SDS011;62638;51.362;12.472;2022-08-07T15:57:58;1.13;;;0.47;;
74267;SDS011;62638;51.362;12.472;2022-08-07T16:00:29;1.17;;;0.30;;
74267;SDS011;62638;51.362;12.472;2022-08-07T16:02:57;1.92;;;0.50;;
74267;SDS011;62638;51.362;12.472;2022-08-07T16:05:26;2.95;;;0.50;;
74267;SDS011;62638;51.362;12.472;2022-08-07T16:07:55;0.77;;;0.65;;
74267;SDS011;62638;51.362;12.472;2022-08-07T16:10:27;1.50;;;0.47;;
74267;SDS011;62638;51.362;12.472;2022-08-07T16:21:14;0.43;;;0.40;;
74267;SDS011;62638;51.362;12.472;2022-08-07T16:24:02;0.50;;;0.45;;
74267;SDS011;62638;51.362;12.472;2022-08-07T16:32:06;1.50;;;0.50;;
74267;SDS011;62638;51.362;12.472;2022-08-07T16:40:27;0.57;;;0.40;;
74267;SDS011;62638;51.362;12.472;2022-08-07T16:56:14;0.65;;;0.52;;
74267;SDS011;62638;51.362;12.472;2022-08-07T17:12:08;0.95;;;0.40;;
74267;SDS011;62638;51.362;12.472;2022-08-07T17:20:14;3.22;;;0.50;;
74267;SDS011;62638;51.362;12.472;2022-08-07T17:25:18;1.98;;;0.68;;
74267;SDS011;62638;51.362;12.472;2022-08-07T17:30:59;1.58;;;0.80;;
74267;SDS011;62638;51.362;12.472;2022-08-07T17:33:30;1.83;;;0.60;;
74267;SDS011;62638;51.362;12.472;2022-08-07T17:41:32;2.03;;;0.63;;
74267;SDS011;62638;51.362;12.472;2022-08-07T17:44:10;0.50;;;0.50;;
74267;SDS011;62638;51.362;12.472;2022-08-07T17:46:46;0.82;;;0.50;;
74267;SDS011;62638;51.362;12.472;2022-08-07T17:52:05;0.93;;;0.45;;
74267;SDS011;62638;51.362;12.472;2022-08-07T17:54:44;2.15;;;0.73;;
74267;SDS011;62638;51.362;12.472;2022-08-07T17:57:18;0.75;;;0.50;;
74267;SDS011;62638;51.362;12.472;2022-08-07T17:59:53;1.73;;;0.80;;
74267;SDS011;62638;51.362;12.472;2022-08-07T18:02:28;0.90;;;0.50;;
74267;SDS011;62638;51.362;12.472;2022-08-07T18:05:08;1.58;;;0.60;;
74267;SDS011;62638;51.362;12.472;2022-08-07T18:07:43;1.05;;;0.60;;
74267;SDS011;62638;51.362;12.472;2022-08-07T18:10:21;0.85;;;0.55;;
74267;SDS011;62638;51.362;12.472;2022-08-07T18:19:21;2.13;;;0.73;;
74267;SDS011;62638;51.362;12.472;2022-08-07T18:21:54;2.20;;;0.70;;
74267;SDS011;62638;51.362;12.472;2022-08-07T18:29:52;1.40;;;0.65;;
74267;SDS011;62638;51.362;12.472;2022-08-07T18:35:24;2.55;;;1.33;;